Time;durP1;ratioP1;P1;durP2;ratioP2;P2;SDS_P1;SDS_P2;PMS_P1;PMS_P2;Temp;Humidity;BMP_temperature;BMP_pressure;BME280_temperature;BME280_humidity;BME280_pressure;Samples;Min_cycle;Max_cycle;Signal;HPM_P1;HPM_P2
2023/08/18 00:01:34;;;;;;;;;;;;;;;18.29;50.91;95659.59;4981513;28;19973;-66
2023/08/18 00:04:00;;;;;;;;;;;;;;;18.37;50.35;95661.16;4989029;28;19925;-65
2023/08/18 00:06:25;;;;;;;;;;;;;;;18.35;50.55;95660.56;4993506;28;19979;-66
2023/08/18 00:08:50;;;;;;;;;;;;;;;18.31;50.71;95666.41;4992360;28;20298;-65
2023/08/18 00:11:16;;;;;;;;;;;;;;;18.29;50.57;95667.69;4997066;28;19968;-65
2023/08/18 00:13:41;;;;;;;;;;;;;;;18.33;50.65;95665.34;4997288;28;19918;-64
2023/08/18 00:16:06;;;;;;;;;;;;;;;18.23;51.05;95663.19;4995433;28;19965;-64
2023/08/18 00:18:31;;;;;;;;;;;;;;;18.18;51.80;95661.16;4997280;28;19965;-66
2023/08/18 00:20:57;;;;;;;;;;;;;;;18.28;51.54;95666.03;4993604;28;20035;-66
2023/08/18 00:23:22;;;;;;;;;;;;;;;18.31;51.14;95661.03;4997200;28;19948;-66
2023/08/18 00:25:47;;;;;;;;;;;;;;;18.32;51.13;95667.22;4999682;28;19934;-65
2023/08/18 00:28:13;;;;;;;;;;;;;;;18.38;50.96;95660.09;5001204;28;20612;-66
2023/08/18 00:30:38;;;;;;;;;;;;;;;18.27;51.33;95661.69;4999721;28;20559;-65
2023/08/18 00:33:03;;;;;;;;;;;;;;;18.27;51.05;95654.44;5000811;28;19932;-65
2023/08/18 00:35:29;;;;;;;;;;;;;;;18.32;50.73;95659.13;4994220;28;19928;-65
2023/08/18 00:37:54;;;;;;;;;;;;;;;18.30;51.03;95654.00;5000155;28;19928;-66
2023/08/18 00:40:19;;;;;;;;;;;;;;;18.27;50.76;95649.03;4995735;28;20000;-65
2023/08/18 00:42:44;;;;;;;;;;;;;;;18.24;51.10;95649.50;5000513;28;19956;-65
2023/08/18 00:45:10;;;;;;;;;;;;;;;18.23;50.59;95645.16;4996638;28;19932;-65
2023/08/18 00:47:35;;;;;;;;;;;;;;;18.22;50.92;95654.28;4998620;28;19980;-65
2023/08/18 00:50:00;;;;;;;;;;;;;;;18.18;50.96;95650.38;4999531;28;20620;-64
2023/08/18 00:52:25;;;;;;;;;;;;;;;18.21;51.03;95654.50;5000035;28;19951;-65
2023/08/18 00:54:51;;;;;;;;;;;;;;;18.18;51.35;95648.53;4999315;28;19980;-65
2023/08/18 00:57:16;;;;;;;;;;;;;;;18.15;51.11;95648.97;4998871;28;19959;-63
2023/08/18 00:59:41;;;;;;;;;;;;;;;18.12;50.89;95645.91;5000138;28;19941;-65
2023/08/18 01:02:06;;;;;;;;;;;;;;;18.09;50.90;95640.97;4998511;28;20337;-65
2023/08/18 01:04:32;;;;;;;;;;;;;;;18.08;51.04;95644.72;4950399;22;1812792;-68
2023/08/18 01:06:57;;;;;;;;;;;;;;;18.09;51.46;95643.69;4993359;28;19926;-68
2023/08/18 01:09:23;;;;;;;;;;;;;;;18.08;51.43;95644.72;4997008;28;19929;-67
2023/08/18 01:11:55;;;;;;;;;;;;;;;18.08;51.64;95640.16;4996324;28;19925;-68
2023/08/18 01:14:20;;;;;;;;;;;;;;;18.09;51.12;95636.44;4997493;28;20290;-69
2023/08/18 01:16:47;;;;;;;;;;;;;;;18.07;51.53;95632.28;4996788;28;19932;-68
2023/08/18 01:19:13;;;;;;;;;;;;;;;18.08;51.53;95628.56;4993919;28;19936;-69
2023/08/18 01:21:38;;;;;;;;;;;;;;;18.09;51.61;95630.22;4996492;28;19925;-68
2023/08/18 01:24:04;;;;;;;;;;;;;;;18.07;51.53;95629.59;4997465;28;19932;-68
2023/08/18 01:26:29;;;;;;;;;;;;;;;18.04;51.57;95628.19;4994953;28;20443;-68
2023/08/18 01:28:54;;;;;;;;;;;;;;;18.04;51.80;95626.31;4997337;28;20448;-68
2023/08/18 01:31:22;;;;;;;;;;;;;;;18.05;51.41;95619.88;4996025;28;20251;-68
2023/08/18 01:33:54;;;;;;;;;;;;;;;18.02;51.27;95619.53;4995403;28;20571;-68
2023/08/18 01:36:23;;;;;;;;;;;;;;;18.03;51.06;95615.78;4993254;28;19917;-68
2023/08/18 01:38:48;;;;;;;;;;;;;;;18.02;51.94;95614.13;4994908;28;19965;-68
2023/08/18 01:41:14;;;;;;;;;;;;;;;17.97;51.59;95616.66;4995753;28;20035;-68
2023/08/18 01:43:40;;;;;;;;;;;;;;;17.95;51.48;95608.81;4994308;28;20382;-68
2023/08/18 01:46:05;;;;;;;;;;;;;;;17.97;51.31;95604.03;4993158;28;19991;-68
2023/08/18 01:48:30;;;;;;;;;;;;;;;17.95;51.46;95603.41;4994843;28;20577;-68
2023/08/18 01:50:55;;;;;;;;;;;;;;;17.96;51.19;95599.69;4993415;28;19933;-68
2023/08/18 01:53:21;;;;;;;;;;;;;;;17.97;51.42;95597.81;4992424;28;20246;-67
2023/08/18 01:55:46;;;;;;;;;;;;;;;17.97;51.27;95595.94;4995177;28;20073;-68
2023/08/18 01:58:11;;;;;;;;;;;;;;;17.90;51.65;95592.50;4994406;28;19925;-68
2023/08/18 02:00:36;;;;;;;;;;;;;;;17.87;51.99;95591.09;4996243;28;20396;-68
2023/08/18 02:03:02;;;;;;;;;;;;;;;17.87;52.24;95587.56;4995436;28;19930;-68
2023/08/18 02:05:28;;;;;;;;;;;;;;;17.85;52.30;95589.66;4992602;28;20412;-68
2023/08/18 02:07:53;;;;;;;;;;;;;;;17.83;52.19;95592.56;4994712;28;20028;-68
2023/08/18 02:10:19;;;;;;;;;;;;;;;17.85;52.67;95592.34;4993076;28;19925;-68
2023/08/18 02:12:44;;;;;;;;;;;;;;;17.85;52.38;95590.47;4993664;28;19957;-68
2023/08/18 02:15:09;;;;;;;;;;;;;;;17.87;52.81;95591.09;4994509;28;19932;-68
2023/08/18 02:17:35;;;;;;;;;;;;;;;17.90;52.62;95587.13;4995231;28;20016;-68
2023/08/18 02:20:00;;;;;;;;;;;;;;;17.89;52.05;95585.50;4995191;28;19932;-68
2023/08/18 02:22:25;;;;;;;;;;;;;;;17.91;52.22;95581.50;4995653;28;20028;-68
2023/08/18 02:24:51;;;;;;;;;;;;;;;17.85;52.37;95577.03;4995361;28;20146;-68
2023/08/18 02:27:16;;;;;;;;;;;;;;;17.89;52.37;95583.63;4994048;28;19925;-68
2023/08/18 02:29:41;;;;;;;;;;;;;;;17.89;51.98;95585.50;4996464;28;19964;-68
2023/08/18 02:32:07;;;;;;;;;;;;;;;17.79;52.23;95578.72;4995130;28;19997;-68
2023/08/18 02:34:32;;;;;;;;;;;;;;;17.76;52.13;95579.19;4996159;28;19968;-68
2023/08/18 02:36:57;;;;;;;;;;;;;;;17.75;52.08;95587.50;4996639;28;20253;-68
2023/08/18 02:39:22;;;;;;;;;;;;;;;17.74;52.67;95586.66;4996090;28;20504;-68
2023/08/18 02:41:51;;;;;;;;;;;;;;;17.72;52.57;95582.53;4995909;28;20893;-67
2023/08/18 02:44:17;;;;;;;;;;;;;;;17.71;52.45;95588.97;4995887;28;19922;-68
2023/08/18 02:46:42;;;;;;;;;;;;;;;17.66;52.38;95581.56;4989831;28;20013;-68
2023/08/18 02:49:07;;;;;;;;;;;;;;;17.65;52.74;95578.06;4996398;28;19988;-68
2023/08/18 02:51:32;;;;;;;;;;;;;;;17.62;52.36;95583.06;4988365;28;19964;-68
2023/08/18 02:53:58;;;;;;;;;;;;;;;17.64;52.20;95575.59;4995873;28;19961;-68
2023/08/18 02:56:23;;;;;;;;;;;;;;;17.62;52.24;95577.69;4993184;28;19983;-68
2023/08/18 02:58:48;;;;;;;;;;;;;;;17.59;52.03;95578.97;4994587;28;19960;-68
2023/08/18 03:01:13;;;;;;;;;;;;;;;17.62;52.25;95572.31;4993688;28;19968;-68
2023/08/18 03:03:39;;;;;;;;;;;;;;;17.57;52.47;95575.66;4992724;28;19965;-68
2023/08/18 03:06:05;;;;;;;;;;;;;;;17.56;52.35;95567.81;4994203;28;20410;-68
2023/08/18 03:08:30;;;;;;;;;;;;;;;17.53;52.29;95563.69;4993780;28;19920;-68
2023/08/18 03:10:56;;;;;;;;;;;;;;;17.53;52.01;95569.91;4993901;28;20342;-68
2023/08/18 03:13:21;;;;;;;;;;;;;;;17.48;52.15;95572.47;4995159;28;20208;-68
2023/08/18 03:15:46;;;;;;;;;;;;;;;17.42;52.25;95567.97;4994227;28;20087;-68
2023/08/18 03:18:12;;;;;;;;;;;;;;;17.36;52.74;95563.47;5008729;28;20029;-68
2023/08/18 03:20:37;;;;;;;;;;;;;;;17.39;52.52;95563.84;4993345;28;19925;-68
2023/08/18 03:23:02;;;;;;;;;;;;;;;17.32;52.37;95573.03;4994449;28;20028;-68
2023/08/18 03:25:27;;;;;;;;;;;;;;;17.33;52.30;95574.69;4995388;28;19971;-68
2023/08/18 03:27:53;;;;;;;;;;;;;;;17.37;52.46;95571.31;4992882;28;19926;-68
2023/08/18 03:30:18;;;;;;;;;;;;;;;17.18;53.42;95570.47;4997218;28;19951;-68
2023/08/18 03:32:43;;;;;;;;;;;;;;;17.25;53.20;95576.63;4989988;28;19965;-68
2023/08/18 03:35:08;;;;;;;;;;;;;;;17.31;53.13;95576.78;4988225;28;19925;-68
2023/08/18 03:37:34;;;;;;;;;;;;;;;17.37;53.11;95570.50;4969394;28;19967;-68
2023/08/18 03:39:59;;;;;;;;;;;;;;;17.41;53.04;95571.72;4992274;28;19925;-68
2023/08/18 03:42:24;;;;;;;;;;;;;;;17.45;53.23;95572.91;4989048;28;20321;-68
2023/08/18 03:44:49;;;;;;;;;;;;;;;17.51;53.03;95574.69;4994970;28;20231;-68
2023/08/18 03:47:15;;;;;;;;;;;;;;;17.55;53.18;95569.69;4993209;28;20028;-68
2023/08/18 03:49:40;;;;;;;;;;;;;;;17.59;53.21;95570.06;4993844;28;20393;-68
2023/08/18 03:52:05;;;;;;;;;;;;;;;17.59;53.40;95570.06;4991684;28;20024;-68
2023/08/18 03:54:31;;;;;;;;;;;;;;;17.62;53.02;95578.53;4993807;28;19925;-68
2023/08/18 03:56:56;;;;;;;;;;;;;;;17.64;52.54;95572.91;4994302;28;19929;-68
2023/08/18 03:59:21;;;;;;;;;;;;;;;17.64;52.44;95572.91;4995313;28;19925;-68
2023/08/18 04:01:46;;;;;;;;;;;;;;;17.70;52.60;95574.69;4996782;28;20120;-68
2023/08/18 04:04:11;;;;;;;;;;;;;;;17.59;52.95;95578.97;4978072;28;19930;-68
2023/08/18 04:06:37;;;;;;;;;;;;;;;17.61;52.89;95576.06;4977058;28;19930;-68
2023/08/18 04:09:06;;;;;;;;;;;;;;;17.58;52.97;95571.13;4977771;28;19926;-68
2023/08/18 04:11:31;;;;;;;;;;;;;;;17.58;52.32;95581.88;4977999;28;19926;-68
2023/08/18 04:13:56;;;;;;;;;;;;;;;17.52;52.65;95570.97;4980755;28;19975;-68
2023/08/18 04:16:21;;;;;;;;;;;;;;;17.49;52.56;95567.88;4997029;28;19964;-68
2023/08/18 04:18:46;;;;;;;;;;;;;;;17.47;52.39;95570.78;4992237;28;19968;-68
2023/08/18 04:21:12;;;;;;;;;;;;;;;17.45;52.25;95567.53;4993048;28;19956;-68
2023/08/18 04:23:37;;;;;;;;;;;;;;;17.41;52.36;95575.19;4997648;28;20334;-68
2023/08/18 04:26:02;;;;;;;;;;;;;;;17.39;51.93;95573.78;5005752;28;19932;-68
2023/08/18 04:28:27;;;;;;;;;;;;;;;17.36;52.04;95571.53;4977051;28;20003;-68
2023/08/18 04:30:53;;;;;;;;;;;;;;;17.34;52.10;95577.13;4978964;28;20031;-68
2023/08/18 04:33:18;;;;;;;;;;;;;;;17.32;52.25;95565.78;4976995;28;19957;-68
2023/08/18 04:35:43;;;;;;;;;;;;;;;17.32;52.17;95570.34;4994757;28;19921;-68
2023/08/18 04:38:08;;;;;;;;;;;;;;;17.27;52.38;95571.03;4996736;28;19995;-68
2023/08/18 04:40:34;;;;;;;;;;;;;;;17.28;52.17;95569.97;4998139;28;20046;-68
2023/08/18 04:42:59;;;;;;;;;;;;;;;17.26;52.28;95578.25;5005609;28;19924;-68
2023/08/18 04:45:24;;;;;;;;;;;;;;;17.26;52.30;95572.88;5002214;28;19961;-68
2023/08/18 04:47:49;;;;;;;;;;;;;;;17.30;52.24;95573.25;5005051;28;19960;-68
2023/08/18 04:50:15;;;;;;;;;;;;;;;17.33;52.12;95574.69;5000424;28;20754;-68
2023/08/18 04:52:40;;;;;;;;;;;;;;;17.39;52.03;95573.78;4976236;28;19925;-68
2023/08/18 04:55:05;;;;;;;;;;;;;;;17.42;52.27;95570.66;4988862;28;20203;-68
2023/08/18 04:57:30;;;;;;;;;;;;;;;17.47;52.03;95570.78;4997901;28;19929;-68
2023/08/18 04:59:56;;;;;;;;;;;;;;;17.51;52.38;95573.88;5000079;28;20234;-68
2023/08/18 05:02:21;;;;;;;;;;;;;;;17.54;52.48;95568.88;4988333;28;20027;-69
2023/08/18 05:04:46;;;;;;;;;;;;;;;17.63;51.90;95576.63;4977405;28;19930;-69
2023/08/18 05:07:12;;;;;;;;;;;;;;;17.61;52.37;95573.34;4988228;28;19926;-70
2023/08/18 05:09:38;;;;;;;;;;;;;;;17.64;52.21;95567.53;4996361;28;20101;-70
2023/08/18 05:12:04;;;;;;;;;;;;;;;17.73;52.46;95571.56;4975038;28;19998;-69
2023/08/18 05:14:30;;;;;;;;;;;;;;;17.79;52.06;95573.31;4984837;28;20245;-69
2023/08/18 05:16:55;;;;;;;;;;;;;;;17.86;51.93;95577.84;4995870;28;20238;-69
2023/08/18 05:19:20;;;;;;;;;;;;;;;17.95;51.46;95575.69;4997257;28;20063;-69
2023/08/18 05:21:45;;;;;;;;;;;;;;;18.02;51.44;95576.44;4993905;28;19973;-69
2023/08/18 05:24:11;;;;;;;;;;;;;;;18.09;51.38;95576.34;4995291;28;19964;-69
2023/08/18 05:26:36;;;;;;;;;;;;;;;18.17;51.25;95571.47;4996531;28;20416;-69
2023/08/18 05:29:01;;;;;;;;;;;;;;;18.23;51.41;95580.50;4994550;28;20322;-69
2023/08/18 05:31:26;;;;;;;;;;;;;;;18.34;51.18;95586.97;4994407;28;19929;-69
2023/08/18 05:33:52;;;;;;;;;;;;;;;18.40;51.69;95585.25;4992528;28;19990;-70
2023/08/18 05:36:20;;;;;;;;;;;;;;;18.52;51.09;95585.25;4996083;28;19960;-69
2023/08/18 05:38:45;;;;;;;;;;;;;;;18.62;51.11;95590.97;5001574;28;20020;-69
2023/08/18 05:41:13;;;;;;;;;;;;;;;18.68;51.43;95592.75;4995940;28;20637;-70
2023/08/18 05:43:39;;;;;;;;;;;;;;;18.84;51.06;95597.69;4996441;28;19959;-70
2023/08/18 05:46:04;;;;;;;;;;;;;;;18.96;50.59;95603.91;4994422;28;19929;-70
2023/08/18 05:48:30;;;;;;;;;;;;;;;19.09;50.21;95600.19;4995048;28;19921;-71
2023/08/18 05:50:55;;;;;;;;;;;;;;;19.19;50.47;95599.59;4990767;28;19926;-70
2023/08/18 05:53:21;;;;;;;;;;;;;;;19.26;50.62;95610.28;4973232;28;19926;-70
2023/08/18 05:55:46;;;;;;;;;;;;;;;19.36;49.93;95610.56;4993390;28;20024;-70
2023/08/18 05:58:12;;;;;;;;;;;;;;;19.51;49.81;95612.78;4993569;28;20453;-61
2023/08/18 06:00:37;;;;;;;;;;;;;;;19.61;49.14;95606.78;4995159;28;19934;-58
2023/08/18 06:03:02;;;;;;;;;;;;;;;19.74;48.94;95608.41;4993281;28;19933;-70
2023/08/18 06:05:28;;;;;;;;;;;;;;;19.82;48.38;95616.13;4996601;28;19936;-69
2023/08/18 06:07:53;;;;;;;;;;;;;;;19.94;48.20;95615.31;4994704;28;20402;-69
2023/08/18 06:10:19;;;;;;;;;;;;;;;20.00;48.00;95616.25;4995641;28;20008;-70
2023/08/18 06:12:44;;;;;;;;;;;;;;;20.06;47.58;95628.81;4991359;28;20315;-69
2023/08/18 06:15:10;;;;;;;;;;;;;;;20.22;46.99;95628.06;5000693;28;20013;-70
2023/08/18 06:17:35;;;;;;;;;;;;;;;20.25;46.78;95628.66;4993416;28;19984;-69
2023/08/18 06:20:00;;;;;;;;;;;;;;;20.25;47.84;95626.75;4977604;28;19925;-69
2023/08/18 06:22:25;;;;;;;;;;;;;;;20.20;47.41;95629.38;4971517;28;20413;-69
2023/08/18 06:24:51;;;;;;;;;;;;;;;20.41;47.55;95632.47;4971236;28;20601;-70
2023/08/18 06:27:16;;;;;;;;;;;;;;;20.44;47.79;95629.28;4985936;28;20009;-69
2023/08/18 06:29:41;;;;;;;;;;;;;;;20.44;47.81;95621.16;4995274;28;20452;-69
2023/08/18 06:32:06;;;;;;;;;;;;;;;20.53;46.19;95627.81;4994488;28;19921;-70
2023/08/18 06:34:32;;;;;;;;;;;;;;;20.61;48.45;95635.53;4993699;28;20004;-70
2023/08/18 06:36:57;;;;;;;;;;;;;;;20.68;46.47;95629.19;4994638;28;19980;-70
2023/08/18 06:39:22;;;;;;;;;;;;;;;20.80;47.50;95631.84;4987889;28;20000;-70
2023/08/18 06:41:47;;;;;;;;;;;;;;;20.78;46.39;95634.81;4993473;28;19956;-69
2023/08/18 06:44:13;;;;;;;;;;;;;;;20.73;46.93;95632.00;4992374;28;20003;-70
2023/08/18 06:46:38;;;;;;;;;;;;;;;20.68;47.02;95640.84;4995635;28;20373;-69
2023/08/18 06:49:03;;;;;;;;;;;;;;;20.77;46.87;95638.56;4995774;28;19917;-70
2023/08/18 06:51:29;;;;;;;;;;;;;;;21.01;46.28;95641.16;4989432;28;19984;-70
2023/08/18 06:53:54;;;;;;;;;;;;;;;20.77;45.29;95641.25;4990915;28;19921;-70
2023/08/18 06:56:19;;;;;;;;;;;;;;;21.15;45.69;95635.41;4994869;28;19953;-70
2023/08/18 06:58:44;;;;;;;;;;;;;;;20.97;46.64;95638.09;4990049;28;20004;-70
2023/08/18 07:01:10;;;;;;;;;;;;;;;20.73;47.21;95640.09;4995528;28;19917;-70
2023/08/18 07:03:35;;;;;;;;;;;;;;;20.65;46.32;95640.50;4975335;28;20369;-70
2023/08/18 07:06:00;;;;;;;;;;;;;;;20.64;46.15;95645.09;4995023;28;19948;-70
2023/08/18 07:08:26;;;;;;;;;;;;;;;20.68;46.61;95650.84;4991956;28;19921;-70
2023/08/18 07:10:51;;;;;;;;;;;;;;;20.80;45.90;95646.19;4993532;28;19975;-70
2023/08/18 07:13:16;;;;;;;;;;;;;;;21.12;45.59;95651.06;4993123;28;20713;-70
2023/08/18 07:15:42;;;;;;;;;;;;;;;21.28;44.95;95648.63;4995017;28;19928;-70
2023/08/18 07:18:07;;;;;;;;;;;;;;;21.46;45.19;95653.00;4992343;28;19929;-70
2023/08/18 07:20:32;;;;;;;;;;;;;;;21.60;44.94;95655.34;4990923;28;19951;-70
2023/08/18 07:22:57;;;;;;;;;;;;;;;21.81;44.33;95656.44;4991813;28;20382;-70
2023/08/18 07:25:24;;;;;;;;;;;;;;;22.08;43.18;95657.63;4993561;28;21588;-70
2023/08/18 07:27:49;;;;;;;;;;;;;;;22.02;43.88;95656.75;4995069;28;19936;-70
2023/08/18 07:30:15;;;;;;;;;;;;;;;22.45;45.21;95667.84;4994467;28;19921;-70
2023/08/18 07:32:40;;;;;;;;;;;;;;;22.64;43.04;95662.94;4991550;28;20389;-70
2023/08/18 07:35:08;;;;;;;;;;;;;;;22.67;43.85;95664.31;4991951;28;20437;-70
2023/08/18 07:37:34;;;;;;;;;;;;;;;23.09;42.98;95665.56;4998399;28;19928;-70
2023/08/18 07:39:59;;;;;;;;;;;;;;;23.09;42.49;95665.56;4996362;28;19961;-70
2023/08/18 07:42:25;;;;;;;;;;;;;;;23.16;41.04;95666.19;4998117;28;20299;-70
2023/08/18 07:44:50;;;;;;;;;;;;;;;23.34;42.31;95664.16;4993788;28;19975;-70
2023/08/18 07:47:15;;;;;;;;;;;;;;;23.41;41.57;95662.03;4993644;28;19987;-70
2023/08/18 07:49:41;;;;;;;;;;;;;;;23.56;41.15;95668.66;4994988;28;20032;-70
2023/08/18 07:52:06;;;;;;;;;;;;;;;23.87;41.27;95666.16;4994571;28;19959;-70
2023/08/18 07:54:31;;;;;;;;;;;;;;;23.99;40.29;95663.22;4993472;28;20310;-70
2023/08/18 07:56:56;;;;;;;;;;;;;;;24.17;40.83;95656.50;4997524;28;19930;-70
2023/08/18 07:59:22;;;;;;;;;;;;;;;23.94;39.32;95655.84;4994434;28;19925;-70
2023/08/18 08:01:47;;;;;;;;;;;;;;;24.06;39.86;95657.53;4998320;28;19929;-70
2023/08/18 08:04:14;;;;;;;;;;;;;;;24.04;39.50;95659.72;4997105;28;20406;-70
2023/08/18 08:06:39;;;;;;;;;;;;;;;24.07;39.05;95656.50;4990440;28;19926;-70
2023/08/18 08:09:05;;;;;;;;;;;;;;;24.11;39.47;95654.88;4996702;28;19933;-70
2023/08/18 08:11:30;;;;;;;;;;;;;;;23.96;40.28;95654.78;4992070;28;20020;-70
2023/08/18 08:13:55;;;;;;;;;;;;;;;24.03;39.68;95652.66;4985978;28;20046;-70
2023/08/18 08:16:21;;;;;;;;;;;;;;;24.05;39.72;95650.47;4986855;28;20490;-70
2023/08/18 08:18:46;;;;;;;;;;;;;;;23.77;39.73;95657.94;4986740;28;19929;-70
2023/08/18 08:21:11;;;;;;;;;;;;;;;23.61;40.53;95657.00;4987640;28;20214;-70
2023/08/18 08:23:37;;;;;;;;;;;;;;;23.74;40.81;95658.47;4985575;28;20265;-70
2023/08/18 08:26:02;;;;;;;;;;;;;;;23.76;40.36;95659.84;4985970;28;19958;-70
2023/08/18 08:28:27;;;;;;;;;;;;;;;23.67;41.37;95659.50;4987524;28;21658;-70
2023/08/18 08:30:52;;;;;;;;;;;;;;;23.94;40.39;95658.56;4982854;28;20168;-70
2023/08/18 08:33:17;;;;;;;;;;;;;;;24.00;40.52;95658.63;4986213;28;19929;-70
2023/08/18 08:35:43;;;;;;;;;;;;;;;24.10;41.42;95653.22;4991163;28;20210;-70
2023/08/18 08:38:08;;;;;;;;;;;;;;;24.01;40.28;95652.09;4995539;28;19973;-70
2023/08/18 08:40:33;;;;;;;;;;;;;;;23.85;41.38;95657.44;4990682;28;19988;-70
2023/08/18 08:42:59;;;;;;;;;;;;;;;24.01;41.91;95657.53;4991280;28;20014;-70
2023/08/18 08:45:24;;;;;;;;;;;;;;;24.22;41.52;95660.34;4995955;28;20348;-70
2023/08/18 08:47:50;;;;;;;;;;;;;;;24.47;39.83;95656.13;4993143;28;20417;-70
2023/08/18 08:50:16;;;;;;;;;;;;;;;24.62;40.54;95650.72;4996324;28;20326;-70
2023/08/18 08:52:41;;;;;;;;;;;;;;;24.47;40.75;95656.13;4996116;28;20355;-70
2023/08/18 08:55:06;;;;;;;;;;;;;;;24.77;40.47;95649.09;4991819;28;19929;-69
2023/08/18 08:57:32;;;;;;;;;;;;;;;24.59;39.30;95656.69;4995036;28;19961;-69
2023/08/18 08:59:58;;;;;;;;;;;;;;;24.93;39.39;95650.81;4990781;28;20016;-70
2023/08/18 09:02:23;;;;;;;;;;;;;;;24.94;38.96;95648.88;4994999;28;20255;-70
2023/08/18 09:04:48;;;;;;;;;;;;;;;24.91;39.03;95652.97;4992256;28;20632;-70
2023/08/18 09:07:14;;;;;;;;;;;;;;;25.07;39.15;95653.00;4992255;28;20364;-70
2023/08/18 09:09:39;;;;;;;;;;;;;;;25.04;38.38;95648.06;4992476;28;19952;-70
2023/08/18 09:12:08;;;;;;;;;;;;;;;25.07;38.99;95656.53;4996473;28;19932;-70
2023/08/18 09:14:34;;;;;;;;;;;;;;;25.30;39.52;95656.25;4993372;28;20315;-70
2023/08/18 09:17:00;;;;;;;;;;;;;;;25.47;39.94;95665.03;4997652;28;19931;-70
2023/08/18 09:19:25;;;;;;;;;;;;;;;25.69;37.79;95658.44;4994965;28;19932;-70
2023/08/18 09:21:50;;;;;;;;;;;;;;;25.55;38.40;95660.09;4991460;28;19944;-69
2023/08/18 09:24:18;;;;;;;;;;;;;;;25.80;38.71;95656.50;4996561;28;20016;-70
2023/08/18 09:26:44;;;;;;;;;;;;;;;25.98;38.15;95652.38;4995579;28;20425;-70
2023/08/18 09:29:09;;;;;;;;;;;;;;;26.02;38.23;95654.56;4996952;28;19926;-70
2023/08/18 09:31:34;;;;;;;;;;;;;;;26.26;37.32;95654.75;4994590;28;20012;-70
2023/08/18 09:34:02;;;;;;;;;;;;;;;26.08;37.59;95656.19;4995434;28;20516;-70
2023/08/18 09:36:27;;;;;;;;;;;;;;;26.27;37.96;95650.91;4989979;28;19961;-70
2023/08/18 09:38:52;;;;;;;;;;;;;;;26.45;36.98;95644.00;4991331;28;20036;-70
2023/08/18 09:41:17;;;;;;;;;;;;;;;26.66;36.47;95645.84;4992753;28;20041;-70
2023/08/18 09:43:42;;;;;;;;;;;;;;;26.72;36.02;95640.06;4990549;28;20032;-70
2023/08/18 09:46:09;;;;;;;;;;;;;;;26.82;35.92;95639.19;4992984;28;20008;-70
2023/08/18 09:48:40;;;;;;;;;;;;;;;26.56;36.24;95635.78;4992846;28;20346;-70
2023/08/18 09:51:06;;;;;;;;;;;;;;;26.74;36.39;95632.44;4989726;28;20418;-70
2023/08/18 09:53:31;;;;;;;;;;;;;;;26.68;35.53;95643.69;4991556;28;20520;-70
2023/08/18 09:56:03;;;;;;;;;;;;;;;26.85;36.20;95643.28;4994262;28;20318;-70
2023/08/18 09:58:35;;;;;;;;;;;;;;;27.10;35.12;95641.50;4992681;28;19930;-70
2023/08/18 10:01:01;;;;;;;;;;;;;;;27.01;35.31;95646.72;4994447;28;19932;-70
2023/08/18 10:03:27;;;;;;;;;;;;;;;27.31;35.91;95644.88;4994356;28;19957;-69
2023/08/18 10:05:52;;;;;;;;;;;;;;;27.67;35.25;95645.69;4990648;28;19932;-69
2023/08/18 10:08:17;;;;;;;;;;;;;;;27.81;34.21;95649.38;4993459;28;20374;-70
2023/08/18 10:10:42;;;;;;;;;;;;;;;27.69;35.05;95647.00;4992248;28;20075;-70
2023/08/18 10:13:08;;;;;;;;;;;;;;;27.96;34.75;95644.81;4995647;28;20040;-70
2023/08/18 10:15:33;;;;;;;;;;;;;;;28.24;33.99;95640.41;4990893;28;19964;-70
2023/08/18 10:17:58;;;;;;;;;;;;;;;28.31;34.10;95645.53;4995918;28;19925;-70
2023/08/18 10:20:24;;;;;;;;;;;;;;;28.21;33.36;95638.25;4988229;28;19984;-68
2023/08/18 10:22:49;;;;;;;;;;;;;;;28.10;34.80;95636.72;4995330;28;20413;-69
2023/08/18 10:25:22;;;;;;;;;;;;;;;28.58;33.37;95641.34;4991989;28;20279;-69
2023/08/18 10:27:47;;;;;;;;;;;;;;;28.16;34.56;95635.59;4996653;28;20348;-69
2023/08/18 10:30:12;;;;;;;;;;;;;;;28.54;33.81;95627.44;4989724;28;19925;-70
2023/08/18 10:32:37;;;;;;;;;;;;;;;28.82;34.42;95634.22;4996793;28;20429;-70
2023/08/18 10:35:17;;;;;;;;;;;;;;;29.11;32.72;95627.72;4993319;28;20013;-69
2023/08/18 10:37:43;;;;;;;;;;;;;;;29.16;32.44;95627.66;4995120;28;20397;-69
2023/08/18 10:40:09;;;;;;;;;;;;;;;28.86;32.78;95622.34;4991463;28;19975;-69
2023/08/18 10:42:34;;;;;;;;;;;;;;;29.26;32.92;95618.50;4993719;28;19925;-69
2023/08/18 10:45:05;;;;;;;;;;;;;;;29.22;32.89;95615.50;4995186;28;19922;-69
2023/08/18 10:47:34;;;;;;;;;;;;;;;29.36;32.83;95614.75;4994017;28;19929;-69
2023/08/18 10:49:59;;;;;;;;;;;;;;;29.67;32.43;95615.03;4994787;28;19921;-69
2023/08/18 10:52:26;;;;;;;;;;;;;;;29.34;32.30;95611.50;4995399;28;19999;-69
2023/08/18 10:54:51;;;;;;;;;;;;;;;29.39;30.67;95620.44;4991997;28;20377;-69
2023/08/18 10:57:16;;;;;;;;;;;;;;;29.10;30.50;95617.88;4996488;28;19925;-69
2023/08/18 10:59:41;;;;;;;;;;;;;;;29.25;32.00;95614.91;4990518;28;20008;-70
2023/08/18 11:02:07;;;;;;;;;;;;;;;29.29;31.02;95618.69;4993913;28;20410;-69
2023/08/18 11:04:32;;;;;;;;;;;;;;;29.26;29.21;95616.53;4986266;28;19998;-69
2023/08/18 11:06:57;;;;;;;;;;;;;;;29.41;31.50;95620.13;4986568;28;19937;-69
2023/08/18 11:09:23;;;;;;;;;;;;;;;29.67;30.63;95619.72;4989641;28;19951;-69
2023/08/18 11:11:48;;;;;;;;;;;;;;;29.90;29.52;95614.31;4994654;28;20032;-69
2023/08/18 11:14:13;;;;;;;;;;;;;;;29.81;29.47;95616.97;4991882;28;19926;-69
2023/08/18 11:16:38;;;;;;;;;;;;;;;29.85;29.56;95619.91;4992605;28;20044;-69
2023/08/18 11:19:07;;;;;;;;;;;;;;;29.78;30.34;95618.38;4994269;28;19960;-68
2023/08/18 11:21:35;;;;;;;;;;;;;;;29.63;30.83;95618.66;4987625;28;20040;-74
2023/08/18 11:24:01;;;;;;;;;;;;;;;29.90;30.21;95611.56;4992549;28;20421;-74
2023/08/18 11:26:26;;;;;;;;;;;;;;;30.14;29.49;95600.41;4988478;28;20041;-74
2023/08/18 11:28:51;;;;;;;;;;;;;;;29.97;29.66;95606.50;4995166;28;20023;-74
2023/08/18 11:31:16;;;;;;;;;;;;;;;30.07;29.50;95605.47;4992646;28;20027;-73
2023/08/18 11:33:41;;;;;;;;;;;;;;;30.00;29.67;95605.91;4993313;28;20022;-73
2023/08/18 11:36:09;;;;;;;;;;;;;;;30.30;29.57;95587.19;4987529;28;19933;-74
2023/08/18 11:38:34;;;;;;;;;;;;;;;30.22;28.85;95596.16;4994989;28;19925;-74
2023/08/18 11:41:00;;;;;;;;;;;;;;;30.34;28.90;95598.38;4993058;28;19926;-73
2023/08/18 11:43:25;;;;;;;;;;;;;;;30.21;29.07;95597.25;4995308;28;20444;-73
2023/08/18 11:45:50;;;;;;;;;;;;;;;29.88;29.33;95595.44;4990790;28;19988;-74
2023/08/18 11:48:18;;;;;;;;;;;;;;;30.05;30.01;95597.56;4994329;28;19922;-71
2023/08/18 11:50:43;;;;;;;;;;;;;;;30.03;29.88;95609.97;4988854;28;20108;-72
2023/08/18 11:53:09;;;;;;;;;;;;;;;29.73;29.56;95609.47;4995649;28;20306;-73
2023/08/18 11:55:41;;;;;;;;;;;;;;;29.34;30.87;95606.00;4990737;28;20035;-74
2023/08/18 11:58:09;;;;;;;;;;;;;;;29.61;31.11;95598.94;4992012;28;19933;-73
2023/08/18 12:00:35;;;;;;;;;;;;;;;29.86;29.29;95596.84;4991102;28;20177;-73
2023/08/18 12:03:02;;;;;;;;;;;;;;;30.10;30.25;95599.38;4993043;28;20389;-73
2023/08/18 12:05:28;;;;;;;;;;;;;;;30.39;29.85;95609.25;4993036;28;19928;-74
2023/08/18 12:07:53;;;;;;;;;;;;;;;30.33;29.49;95603.06;4992484;28;20020;-74
2023/08/18 12:10:21;;;;;;;;;;;;;;;30.51;29.58;95603.22;4993658;28;20327;-74
2023/08/18 12:12:53;;;;;;;;;;;;;;;30.39;29.45;95601.03;4991060;28;19976;-74
2023/08/18 12:15:19;;;;;;;;;;;;;;;30.92;28.24;95596.00;4987484;28;19930;-74
2023/08/18 12:17:44;;;;;;;;;;;;;;;30.70;28.72;95588.53;4992365;28;19936;-74
2023/08/18 12:20:09;;;;;;;;;;;;;;;30.90;28.56;95594.69;4982164;28;19940;-74
2023/08/18 12:22:34;;;;;;;;;;;;;;;30.67;28.61;95600.16;4997596;28;19933;-74
2023/08/18 12:25:00;;;;;;;;;;;;;;;30.88;29.28;95592.25;4995150;28;19926;-74
2023/08/18 12:27:29;;;;;;;;;;;;;;;31.04;28.89;95594.63;4996127;28;20396;-74
2023/08/18 12:29:54;;;;;;;;;;;;;;;31.07;28.08;95588.50;4994497;28;19925;-74
2023/08/18 12:32:19;;;;;;;;;;;;;;;30.87;27.21;95587.88;4993044;28;20440;-74
2023/08/18 12:34:49;;;;;;;;;;;;;;;31.09;27.57;95591.72;4994725;28;20382;-75
2023/08/18 12:37:15;;;;;;;;;;;;;;;31.43;28.68;95592.28;4997615;28;19937;-74
2023/08/18 12:39:42;;;;;;;;;;;;;;;31.33;28.51;95593.34;4993168;28;19983;-76